Time;durP1;ratioP1;P1;durP2;ratioP2;P2;SDS_P1;SDS_P2;PMS_P1;PMS_P2;Temp;Humidity;BMP_temperature;BMP_pressure;BME280_temperature;BME280_humidity;BME280_pressure;Samples;Min_cycle;Max_cycle;Signal;HPM_P1;HPM_P2
2023/06/19 00:01:25;;;;;;;6.53;4.80;;;;;;;24.97;53.16;99958.47;5070853;28;20202;-61
2023/06/19 00:03:51;;;;;;;8.00;5.63;;;;;;;24.95;54.05;99970.50;5072869;28;20691;-61
2023/06/19 00:06:16;;;;;;;8.17;5.83;;;;;;;24.95;54.33;99987.00;5071341;28;20276;-61
2023/06/19 00:08:42;;;;;;;9.90;5.87;;;;;;;24.94;54.50;99974.59;5074405;28;20835;-61
2023/06/19 00:11:07;;;;;;;9.20;6.07;;;;;;;24.93;54.83;99978.75;5072542;28;20186;-61
2023/06/19 00:13:33;;;;;;;10.13;5.60;;;;;;;24.94;55.19;99989.06;5071834;28;20193;-61
2023/06/19 00:16:00;;;;;;;13.20;6.43;;;;;;;24.94;55.31;99986.16;5071913;28;20189;-61
2023/06/19 00:18:26;;;;;;;8.67;6.17;;;;;;;24.94;55.52;100002.69;5067171;28;20879;-61
2023/06/19 00:20:52;;;;;;;12.50;5.90;;;;;;;24.94;55.83;99997.72;5081674;28;20456;-61
2023/06/19 00:23:18;;;;;;;10.03;5.50;;;;;;;24.94;55.53;99994.81;5052508;28;20928;-61
2023/06/19 00:25:44;;;;;;;12.53;5.47;;;;;;;24.93;56.07;100009.72;5070483;28;20421;-61
2023/06/19 00:28:11;;;;;;;12.17;6.10;;;;;;;24.93;56.27;100024.97;5059576;28;20191;-61
2023/06/19 00:30:37;;;;;;;7.07;4.60;;;;;;;24.92;56.10;100014.66;5070656;28;20279;-61
2023/06/19 00:33:03;;;;;;;9.33;5.17;;;;;;;24.92;56.63;100017.56;5079436;28;20436;-61
2023/06/19 00:35:28;;;;;;;8.37;5.20;;;;;;;24.94;56.07;100011.34;5087522;28;20497;-61
2023/06/19 00:37:53;;;;;;;13.47;5.87;;;;;;;24.93;56.27;100024.97;5083881;28;20202;-61
2023/06/19 00:40:32;;;;;;;8.07;5.03;;;;;;;24.92;56.27;100032.00;5084743;28;20206;-60
2023/06/19 00:42:58;;;;;;;7.70;4.47;;;;;;;24.93;56.66;100032.84;5053452;28;20267;-61
2023/06/19 00:45:24;;;;;;;5.77;4.23;;;;;;;24.93;56.84;100048.06;5084778;28;20470;-61
2023/06/19 00:47:50;;;;;;;7.90;4.87;;;;;;;24.95;56.33;100051.38;5089175;28;20174;-61
2023/06/19 00:50:16;;;;;;;7.37;4.17;;;;;;;24.95;56.30;100054.25;5070999;28;20812;-61
2023/06/19 00:52:41;;;;;;;6.20;4.33;;;;;;;24.95;56.64;100057.16;5085340;28;20816;-61
2023/06/19 00:55:07;;;;;;;8.40;4.80;;;;;;;24.97;56.73;100066.19;5053284;28;20191;-61
2023/06/19 00:57:33;;;;;;;6.83;4.60;;;;;;;24.97;56.24;100057.53;5079758;28;20186;-62
2023/06/19 00:59:58;;;;;;;8.40;4.17;;;;;;;24.98;56.38;100038.94;5080591;28;20480;-61
2023/06/19 01:02:24;;;;;;;9.70;5.17;;;;;;;24.98;56.40;100036.03;5073920;28;20181;-62
2023/06/19 01:04:51;;;;;;;6.67;4.40;;;;;;;24.98;56.74;100041.81;5089182;28;20181;-62
2023/06/19 01:07:18;;;;;;;8.80;3.93;;;;;;;24.97;56.68;100031.53;5081201;28;20432;-62
2023/06/19 01:09:53;;;;;;;10.93;4.57;;;;;;;24.98;56.28;100015.81;5065552;28;20872;-61
2023/06/19 01:12:25;;;;;;;7.03;4.33;;;;;;;24.97;56.70;100011.31;5073398;28;21179;-61
2023/06/19 01:14:54;;;;;;;6.00;4.37;;;;;;;24.97;56.51;99996.88;5071117;28;20469;-61
2023/06/19 01:17:21;;;;;;;6.30;4.20;;;;;;;24.98;56.23;99969.59;5055943;28;20521;-61
2023/06/19 01:19:46;;;;;;;6.60;4.27;;;;;;;24.99;56.65;99982.78;5072674;28;20432;-61
2023/06/19 01:22:27;;;;;;;5.73;4.13;;;;;;;24.97;56.71;99976.66;5054967;28;20444;-61
2023/06/19 01:24:52;;;;;;;6.17;3.83;;;;;;;25.00;57.08;99964.22;5068024;28;20170;-61
2023/06/19 01:27:18;;;;;;;5.47;4.17;;;;;;;24.98;56.66;99955.16;5078815;28;20510;-61
2023/06/19 01:29:43;;;;;;;7.90;4.43;;;;;;;24.98;56.43;99952.28;5059757;28;20174;-61
2023/06/19 01:32:15;;;;;;;5.40;3.50;;;;;;;24.97;56.82;99950.66;5069645;28;20181;-61
2023/06/19 01:34:40;;;;;;;5.57;4.40;;;;;;;24.97;57.45;99956.41;5052667;28;20183;-61
2023/06/19 01:37:06;;;;;;;5.80;3.93;;;;;;;24.97;56.61;99952.69;5067576;28;20421;-61
2023/06/19 01:39:31;;;;;;;6.23;4.30;;;;;;;24.99;57.02;99959.69;5059076;28;20578;-61
2023/06/19 01:41:57;;;;;;;8.30;3.90;;;;;;;24.99;56.83;99964.66;5051093;28;20623;-61
2023/06/19 01:44:22;;;;;;;6.17;4.70;;;;;;;24.99;56.64;99982.78;5069693;28;20183;-61
2023/06/19 01:46:50;;;;;;;7.23;4.70;;;;;;;25.00;57.05;99977.84;5069708;28;20181;-61
2023/06/19 01:49:15;;;;;;;5.70;4.17;;;;;;;25.00;57.15;99983.63;5059583;28;20250;-61
2023/06/19 01:51:40;;;;;;;5.93;4.07;;;;;;;24.97;57.28;99982.41;5071563;28;20494;-61
2023/06/19 01:54:06;;;;;;;8.10;3.73;;;;;;;24.98;57.20;99978.28;5053450;28;20174;-61
2023/06/19 01:56:32;;;;;;;6.87;4.73;;;;;;;24.99;56.70;99971.25;5071631;28;20174;-61
2023/06/19 01:58:57;;;;;;;7.40;4.23;;;;;;;24.98;56.74;99972.50;5086572;28;20414;-61
2023/06/19 02:01:22;;;;;;;6.33;4.40;;;;;;;24.99;57.13;99971.25;5089997;28;20198;-61
2023/06/19 02:03:48;;;;;;;8.00;4.37;;;;;;;24.97;57.07;99979.53;5078177;28;20182;-61
2023/06/19 02:06:13;;;;;;;5.10;3.77;;;;;;;24.98;57.27;99984.06;5069887;28;20547;-61
2023/06/19 02:08:39;;;;;;;7.50;3.87;;;;;;;24.96;57.30;99989.47;5072271;28;20657;-61
2023/06/19 02:11:04;;;;;;;9.10;5.03;;;;;;;24.96;57.37;99997.28;5070459;28;20503;-61
2023/06/19 02:13:29;;;;;;;6.60;4.00;;;;;;;24.96;57.82;99989.47;5074478;28;20957;-61
2023/06/19 02:15:55;;;;;;;6.10;4.20;;;;;;;24.96;57.54;99977.06;5090539;28;20170;-61
2023/06/19 02:18:21;;;;;;;5.13;3.83;;;;;;;24.96;57.61;99982.84;5084560;28;20194;-61
2023/06/19 02:20:47;;;;;;;6.97;4.00;;;;;;;24.96;57.40;99977.91;5087649;28;20811;-61
2023/06/19 02:23:12;;;;;;;5.83;4.00;;;;;;;24.97;57.20;99962.19;5089539;28;20166;-61
2023/06/19 02:25:37;;;;;;;6.57;4.03;;;;;;;24.98;57.13;99969.59;5054005;28;20202;-61
2023/06/19 02:28:03;;;;;;;9.13;4.10;;;;;;;24.97;57.32;99967.97;5069716;28;20175;-61
2023/06/19 02:30:29;;;;;;;7.00;4.10;;;;;;;24.97;57.26;99979.53;5075615;28;20275;-61
2023/06/19 02:32:54;;;;;;;6.67;4.63;;;;;;;24.97;57.07;99988.19;5089360;28;20186;-61
2023/06/19 02:35:20;;;;;;;5.90;4.17;;;;;;;24.98;57.11;99984.06;5088425;28;20193;-61
2023/06/19 02:37:47;;;;;;;5.43;4.20;;;;;;;24.99;57.17;99993.56;5072889;28;20601;-61
2023/06/19 02:40:13;;;;;;;6.00;4.10;;;;;;;24.99;57.51;99991.47;5070393;28;20258;-61
2023/06/19 02:42:38;;;;;;;9.70;4.30;;;;;;;24.96;57.08;99989.47;5081527;28;20467;-61
2023/06/19 02:45:04;;;;;;;5.33;4.17;;;;;;;24.96;57.10;99995.22;5090343;28;20440;-61
2023/06/19 02:47:31;;;;;;;6.27;3.97;;;;;;;24.97;57.02;99990.25;5090745;28;20209;-60
2023/06/19 02:49:58;;;;;;;7.37;4.30;;;;;;;24.97;57.18;99999.75;5090582;28;20163;-60
2023/06/19 02:52:23;;;;;;;5.67;4.07;;;;;;;24.96;57.00;99995.22;5058184;28;20437;-61
2023/06/19 02:54:49;;;;;;;5.13;4.27;;;;;;;24.95;57.13;99993.59;5070290;28;20413;-60
2023/06/19 02:57:14;;;;;;;6.30;4.00;;;;;;;24.95;57.27;99987.81;5069973;28;20175;-61
2023/06/19 02:59:39;;;;;;;5.53;4.10;;;;;;;24.95;57.40;99998.53;5069001;28;20592;-60
2023/06/19 03:02:05;;;;;;;6.47;4.47;;;;;;;24.93;57.55;99998.97;5089789;28;20657;-61
2023/06/19 03:04:31;;;;;;;9.03;4.03;;;;;;;24.94;57.29;99994.03;5090224;28;20166;-60
2023/06/19 03:06:56;;;;;;;6.40;4.00;;;;;;;24.94;57.31;99997.72;5083594;28;20564;-60
2023/06/19 03:09:22;;;;;;;5.90;4.50;;;;;;;24.94;57.69;99997.72;5076370;28;20179;-61
2023/06/19 03:11:47;;;;;;;5.43;4.00;;;;;;;24.94;57.49;99997.72;5072527;28;20178;-61
2023/06/19 03:14:12;;;;;;;6.83;4.53;;;;;;;24.94;57.73;99991.13;5080396;28;20186;-62
2023/06/19 03:16:38;;;;;;;5.77;4.47;;;;;;;24.94;57.67;99996.91;5090439;28;20530;-62
2023/06/19 03:19:03;;;;;;;6.30;4.60;;;;;;;24.93;57.80;99996.09;5090011;28;20178;-62
2023/06/19 03:21:29;;;;;;;5.20;4.40;;;;;;;24.92;57.56;100000.22;5083726;28;20202;-62
2023/06/19 03:23:54;;;;;;;6.60;4.20;;;;;;;24.93;57.73;100013.41;5035160;28;20175;-61
2023/06/19 03:26:20;;;;;;;5.80;3.97;;;;;;;24.93;57.15;100007.63;5086813;28;20239;-61
2023/06/19 03:28:47;;;;;;;5.53;4.20;;;;;;;24.93;57.84;100006.84;5069018;28;20185;-61
2023/06/19 03:31:12;;;;;;;4.90;3.97;;;;;;;24.92;58.33;99999.41;5077400;28;20267;-61
2023/06/19 03:33:38;;;;;;;5.87;4.63;;;;;;;24.90;57.96;100002.75;5059738;28;21198;-61
2023/06/19 03:36:04;;;;;;;5.53;4.17;;;;;;;24.91;58.15;100006.44;5077119;28;20220;-61
2023/06/19 03:38:29;;;;;;;4.70;4.00;;;;;;;24.90;58.07;100004.81;5067148;28;20209;-61
2023/06/19 03:40:54;;;;;;;6.30;4.30;;;;;;;24.91;57.80;100003.53;5086880;28;20210;-61
2023/06/19 03:43:20;;;;;;;6.97;4.37;;;;;;;24.91;57.87;100010.16;5078915;28;20548;-61
2023/06/19 03:45:45;;;;;;;5.53;4.50;;;;;;;24.90;58.03;100002.75;5077120;28;20670;-61
2023/06/19 03:48:11;;;;;;;6.17;4.30;;;;;;;24.91;58.12;99998.59;5069259;28;20158;-61
2023/06/19 03:50:36;;;;;;;5.33;3.80;;;;;;;24.92;58.05;100013.84;5051081;28;20532;-61
2023/06/19 03:53:02;;;;;;;5.60;3.97;;;;;;;24.92;57.84;100016.72;5079233;28;20181;-61
2023/06/19 03:55:28;;;;;;;4.67;3.63;;;;;;;24.91;57.95;100015.94;5074162;28;20224;-61
2023/06/19 03:57:53;;;;;;;5.27;4.00;;;;;;;24.92;58.10;100022.50;5068969;28;20204;-61
2023/06/19 04:00:19;;;;;;;6.10;4.27;;;;;;;24.91;57.62;100033.25;5072778;28;20207;-61
2023/06/19 04:02:47;;;;;;;7.33;4.00;;;;;;;24.91;57.86;100041.91;5074025;28;20189;-61
2023/06/19 04:05:13;;;;;;;4.57;3.63;;;;;;;24.91;58.02;100041.91;5068822;28;20927;-61
2023/06/19 04:07:39;;;;;;;6.10;4.03;;;;;;;24.90;57.95;100042.34;5053218;28;20449;-61
2023/06/19 04:10:05;;;;;;;6.10;4.27;;;;;;;24.89;58.05;100038.63;5068818;28;20409;-61
2023/06/19 04:12:30;;;;;;;4.30;3.67;;;;;;;24.89;58.36;100027.06;5068714;28;20187;-61
2023/06/19 04:14:56;;;;;;;5.60;3.47;;;;;;;24.91;57.88;100020.88;5066888;28;20947;-61
2023/06/19 04:17:21;;;;;;;4.80;4.10;;;;;;;24.90;58.26;100025.84;5082686;28;20187;-61
2023/06/19 04:19:47;;;;;;;5.40;4.00;;;;;;;24.91;57.94;100027.47;5076256;28;20186;-61
2023/06/19 04:22:12;;;;;;;6.63;4.60;;;;;;;24.91;57.79;100023.75;5075787;28;20179;-61
2023/06/19 04:24:37;;;;;;;5.60;4.00;;;;;;;24.90;57.65;100028.75;5088656;28;20220;-61
2023/06/19 04:27:03;;;;;;;5.93;4.53;;;;;;;24.90;58.12;100031.63;5088648;28;20159;-61
2023/06/19 04:29:31;;;;;;;5.37;3.73;;;;;;;24.90;57.89;100031.63;5070931;28;20244;-61
2023/06/19 04:32:00;;;;;;;6.13;4.20;;;;;;;24.89;58.17;100029.97;5075361;28;20186;-61
2023/06/19 04:34:25;;;;;;;6.10;3.87;;;;;;;24.90;58.23;100027.91;5068651;28;20402;-61
2023/06/19 04:36:51;;;;;;;5.13;3.97;;;;;;;24.88;58.28;100022.56;5071043;28;20927;-61
2023/06/19 04:39:16;;;;;;;6.93;4.70;;;;;;;24.88;58.16;100022.56;5067880;28;20183;-61
2023/06/19 04:41:44;;;;;;;5.70;4.13;;;;;;;24.90;58.08;100020.06;5073199;28;20206;-61
2023/06/19 04:44:13;;;;;;;5.70;4.07;;;;;;;24.90;58.11;100025.84;5081135;28;20247;-61
2023/06/19 04:46:38;;;;;;;5.47;3.70;;;;;;;24.90;58.03;100020.06;5085685;28;20412;-61
2023/06/19 04:49:04;;;;;;;4.60;3.60;;;;;;;24.91;58.09;100015.94;5081754;28;21327;-61
2023/06/19 04:51:33;;;;;;;6.00;4.07;;;;;;;24.91;58.14;100012.22;5069672;28;20518;-61
2023/06/19 04:53:59;;;;;;;4.30;3.40;;;;;;;24.90;58.34;100008.53;5066964;28;20444;-61
2023/06/19 04:56:25;;;;;;;5.30;3.83;;;;;;;24.90;57.94;100008.53;5068071;28;20449;-61
2023/06/19 04:58:51;;;;;;;5.93;4.17;;;;;;;24.90;58.36;100007.69;5077080;28;20813;-62
2023/06/19 05:01:16;;;;;;;4.93;3.77;;;;;;;24.89;58.21;100006.84;5082340;28;20301;-61
2023/06/19 05:03:45;;;;;;;5.00;3.77;;;;;;;24.88;58.60;99999.44;5066645;28;20452;-61
2023/06/19 05:06:11;;;;;;;4.70;3.70;;;;;;;24.89;58.75;100006.84;5051184;28;20285;-61
2023/06/19 05:08:36;;;;;;;5.10;3.90;;;;;;;24.90;58.42;100002.75;5086800;28;20435;-61
2023/06/19 05:11:02;;;;;;;9.27;3.70;;;;;;;24.90;58.48;100020.06;5077362;28;20186;-61
2023/06/19 05:13:27;;;;;;;4.53;3.57;;;;;;;24.89;58.40;100011.84;5081142;28;20240;-61
2023/06/19 05:15:53;;;;;;;5.27;3.73;;;;;;;24.90;58.69;100010.56;5072532;28;20182;-61
2023/06/19 05:18:18;;;;;;;5.80;4.00;;;;;;;24.90;58.49;100019.25;5067955;28;20266;-61
2023/06/19 05:20:44;;;;;;;5.13;3.83;;;;;;;24.89;58.75;100021.28;5051121;28;20639;-61
2023/06/19 05:23:09;;;;;;;4.73;3.33;;;;;;;24.88;58.49;100025.44;5072893;28;20704;-61
2023/06/19 05:25:35;;;;;;;5.23;3.43;;;;;;;24.91;58.65;100032.44;5067945;28;20179;-61
2023/06/19 05:28:00;;;;;;;7.23;3.73;;;;;;;24.90;58.94;100030.78;5079353;28;20193;-61
2023/06/19 05:30:25;;;;;;;7.50;3.70;;;;;;;24.90;59.04;100033.69;5087764;28;20197;-61
2023/06/19 05:32:51;;;;;;;4.93;3.73;;;;;;;24.91;58.84;100038.19;5075199;28;20257;-61
2023/06/19 05:35:16;;;;;;;4.20;3.03;;;;;;;24.91;58.52;100033.25;5072403;28;20297;-61
2023/06/19 05:37:43;;;;;;;5.07;3.70;;;;;;;24.94;58.76;100026.59;5087126;28;20530;-62
2023/06/19 05:40:09;;;;;;;5.10;4.10;;;;;;;24.93;59.11;100027.84;5072772;28;20266;-61
2023/06/19 05:42:35;;;;;;;4.93;4.00;;;;;;;24.93;59.18;100030.75;5084379;28;20432;-61
2023/06/19 05:45:02;;;;;;;5.60;3.23;;;;;;;24.95;59.18;100034.03;5082430;28;20532;-61
2023/06/19 05:47:29;;;;;;;5.17;3.60;;;;;;;24.97;58.60;100030.69;5067533;28;20182;-62
2023/06/19 05:49:54;;;;;;;5.03;3.87;;;;;;;24.96;59.01;100038.56;5067398;28;20424;-61
2023/06/19 05:52:20;;;;;;;5.73;3.80;;;;;;;24.97;59.31;100034.41;5085457;28;20416;-61
2023/06/19 05:54:46;;;;;;;5.73;4.23;;;;;;;24.96;59.44;100038.56;5078361;28;20183;-61
2023/06/19 05:57:11;;;;;;;4.60;3.37;;;;;;;24.96;59.72;100041.44;5067376;28;20417;-61
2023/06/19 05:59:37;;;;;;;6.37;3.50;;;;;;;24.93;59.72;100042.28;5069630;28;20215;-61
2023/06/19 06:02:03;;;;;;;6.50;4.17;;;;;;;24.93;59.88;100047.28;5067145;28;20249;-61
2023/06/19 06:04:30;;;;;;;4.37;3.37;;;;;;;24.97;59.77;100042.25;5049300;28;20304;-61
2023/06/19 06:06:56;;;;;;;5.07;3.50;;;;;;;25.00;59.75;100048.00;5069525;28;20226;-61
2023/06/19 06:09:21;;;;;;;9.20;4.30;;;;;;;25.03;60.08;100055.00;5067164;28;20987;-61
2023/06/19 06:11:47;;;;;;;4.73;3.37;;;;;;;24.99;60.30;100042.66;5074196;28;20182;-61
2023/06/19 06:14:12;;;;;;;4.70;3.30;;;;;;;24.96;60.35;100046.41;5077901;28;20186;-61
2023/06/19 06:16:37;;;;;;;5.47;4.00;;;;;;;24.93;60.03;100053.84;5073913;28;20186;-61
2023/06/19 06:19:03;;;;;;;4.43;3.50;;;;;;;24.94;60.28;100060.47;5072558;28;20190;-61
2023/06/19 06:21:28;;;;;;;5.00;3.80;;;;;;;24.91;60.55;100059.25;5056037;28;20234;-61
2023/06/19 06:23:54;;;;;;;6.20;4.20;;;;;;;24.92;60.25;100058.00;5069069;28;20182;-61
2023/06/19 06:26:20;;;;;;;6.50;4.03;;;;;;;24.92;59.89;100063.78;5070894;28;20221;-61
2023/06/19 06:28:45;;;;;;;5.13;3.60;;;;;;;24.93;60.38;100059.63;5067167;28;20179;-61
2023/06/19 06:31:11;;;;;;;5.80;3.90;;;;;;;24.92;60.54;100069.56;5072854;28;20194;-61
2023/06/19 06:33:36;;;;;;;5.27;3.73;;;;;;;24.93;60.54;100076.97;5067059;28;20241;-61
2023/06/19 06:36:02;;;;;;;4.57;3.50;;;;;;;24.92;60.51;100092.66;5070354;28;20164;-61
2023/06/19 06:38:27;;;;;;;6.50;4.10;;;;;;;24.92;60.39;100092.66;5071801;28;20179;-61
2023/06/19 06:40:53;;;;;;;5.30;3.30;;;;;;;24.91;60.46;100093.91;5075818;28;20210;-61
2023/06/19 06:43:18;;;;;;;5.30;4.07;;;;;;;24.90;60.42;100091.44;5077509;28;20186;-61
2023/06/19 06:45:43;;;;;;;5.60;4.50;;;;;;;24.90;60.63;100095.16;5080772;28;20186;-62
2023/06/19 06:48:09;;;;;;;5.40;3.50;;;;;;;24.93;60.25;100090.59;5070622;28;20167;-62
2023/06/19 06:50:35;;;;;;;5.00;3.53;;;;;;;24.94;60.46;100100.91;5088420;28;20182;-61
2023/06/19 06:53:01;;;;;;;8.60;4.07;;;;;;;24.89;61.19;100093.50;5078101;28;20187;-61
2023/06/19 06:55:26;;;;;;;5.50;3.90;;;;;;;24.93;60.91;100111.63;5070290;28;20241;-61
2023/06/19 06:57:51;;;;;;;6.07;4.03;;;;;;;24.95;61.09;100108.31;5072190;28;20261;-61
2023/06/19 07:00:18;;;;;;;5.70;4.70;;;;;;;24.94;60.73;100110.38;5070463;28;20238;-61
2023/06/19 07:02:43;;;;;;;8.87;4.23;;;;;;;24.93;61.56;100113.72;5073132;28;20191;-61
2023/06/19 07:05:09;;;;;;;5.80;4.20;;;;;;;24.92;61.16;100126.47;5086000;28;20439;-61
2023/06/19 07:07:34;;;;;;;6.40;3.80;;;;;;;24.91;61.48;100122.78;5090255;28;20230;-61
2023/06/19 07:10:00;;;;;;;5.97;4.10;;;;;;;24.91;61.31;100131.47;5085852;28;20423;-61
2023/06/19 07:12:25;;;;;;;5.37;3.80;;;;;;;24.93;61.22;100131.03;5087210;28;20186;-61
2023/06/19 07:14:53;;;;;;;5.60;4.30;;;;;;;24.93;60.73;100122.38;5085755;28;20296;-61
2023/06/19 07:17:19;;;;;;;6.40;3.70;;;;;;;24.95;61.94;100137.19;5070119;28;20198;-61
2023/06/19 07:19:44;;;;;;;6.63;4.67;;;;;;;24.95;61.13;100129.38;5072318;28;20842;-61
2023/06/19 07:22:09;;;;;;;5.60;4.50;;;;;;;24.95;61.24;100135.13;5051220;28;20682;-61
2023/06/19 07:24:35;;;;;;;6.43;3.97;;;;;;;24.95;61.03;100125.66;5069782;28;20237;-61
2023/06/19 07:27:00;;;;;;;5.30;3.97;;;;;;;24.97;60.94;100132.63;5067275;28;20833;-61
2023/06/19 07:29:26;;;;;;;7.73;4.10;;;;;;;24.96;61.17;100133.88;5070117;28;20667;-61
2023/06/19 07:31:52;;;;;;;4.67;3.93;;;;;;;24.98;61.04;100131.38;5053817;28;20244;-61
2023/06/19 07:34:17;;;;;;;5.80;4.50;;;;;;;24.99;61.19;100135.09;5069697;28;20927;-61
2023/06/19 07:36:43;;;;;;;6.07;4.10;;;;;;;24.99;61.09;100138.78;5082023;28;20201;-61
2023/06/19 07:39:08;;;;;;;5.67;4.00;;;;;;;24.99;60.99;100138.78;5084753;28;20197;-61
2023/06/19 07:41:34;;;;;;;6.17;5.00;;;;;;;25.01;60.75;100144.13;5087195;28;20199;-61
2023/06/19 07:43:59;;;;;;;6.33;4.07;;;;;;;25.00;60.58;100139.63;5088915;28;20186;-62
2023/06/19 07:46:25;;;;;;;6.67;4.57;;;;;;;24.97;60.86;100138.41;5070320;28;20232;-61
2023/06/19 07:48:50;;;;;;;5.83;4.40;;;;;;;24.98;61.43;100142.94;5077515;28;20183;-61
2023/06/19 07:51:15;;;;;;;6.23;3.90;;;;;;;24.98;60.92;100142.94;5069147;28;20590;-61
2023/06/19 07:53:43;;;;;;;5.50;4.03;;;;;;;24.99;61.06;100135.09;5069044;28;20558;-62
2023/06/19 07:56:09;;;;;;;5.20;4.07;;;;;;;24.99;61.24;100135.09;5051452;28;20186;-62
2023/06/19 07:58:34;;;;;;;5.30;4.23;;;;;;;24.99;61.02;100132.22;5082902;28;20472;-62
2023/06/19 08:01:00;;;;;;;6.17;3.80;;;;;;;24.99;61.47;100130.13;5082933;28;20473;-62
2023/06/19 08:03:25;;;;;;;7.33;4.33;;;;;;;24.99;61.29;100127.22;5068537;28;20174;-61
2023/06/19 08:05:51;;;;;;;5.80;4.30;;;;;;;25.00;61.17;100123.13;5068397;28;20634;-62
2023/06/19 08:08:16;;;;;;;6.10;4.40;;;;;;;25.00;60.92;100123.13;5073832;28;20810;-62
2023/06/19 08:10:42;;;;;;;8.90;4.50;;;;;;;25.01;61.18;100129.69;5070162;28;20765;-61
2023/06/19 08:13:07;;;;;;;7.87;5.20;;;;;;;25.00;61.11;100128.06;5088258;28;20179;-61
2023/06/19 08:15:33;;;;;;;6.50;4.70;;;;;;;25.01;60.87;100136.31;5085054;28;20213;-62
2023/06/19 08:17:58;;;;;;;5.23;3.90;;;;;;;25.01;61.07;100136.31;5088472;28;20185;-61
2023/06/19 08:20:23;;;;;;;4.83;4.00;;;;;;;25.00;61.15;100133.84;5061909;28;20242;-61
2023/06/19 08:22:49;;;;;;;4.03;3.47;;;;;;;25.00;61.46;100128.91;5049726;28;20155;-62
2023/06/19 08:25:14;;;;;;;5.60;4.37;;;;;;;25.01;61.40;100130.53;5078988;28;20187;-62
2023/06/19 08:27:40;;;;;;;7.83;4.63;;;;;;;25.00;61.84;100128.91;5049703;28;20239;-62
2023/06/19 08:30:06;;;;;;;6.47;4.47;;;;;;;24.99;61.51;100124.34;5079265;28;20190;-62
2023/06/19 08:32:33;;;;;;;8.13;5.30;;;;;;;24.99;61.43;100126.44;5069632;28;20179;-61
2023/06/19 08:34:58;;;;;;;5.77;3.93;;;;;;;25.00;61.79;100122.28;5064896;28;20539;-62
2023/06/19 08:37:23;;;;;;;7.70;4.47;;;;;;;25.01;61.47;100130.53;5067685;28;20437;-61
2023/06/19 08:39:49;;;;;;;9.23;4.17;;;;;;;25.02;61.66;100135.06;5067873;28;20186;-61
2023/06/19 08:42:14;;;;;;;6.07;4.03;;;;;;;25.02;61.64;100128.44;5074089;28;20198;-61
2023/06/19 08:44:40;;;;;;;6.10;4.27;;;;;;;25.02;61.59;100132.16;5081792;28;20216;-61
2023/06/19 08:47:06;;;;;;;8.00;4.40;;;;;;;25.03;61.85;100133.00;5082429;28;20195;-61
2023/06/19 08:49:33;;;;;;;4.87;4.10;;;;;;;25.03;61.61;100130.09;5067614;28;20205;-61
2023/06/19 08:51:59;;;;;;;7.60;4.60;;;;;;;25.03;61.67;100128.00;5067471;28;20270;-61
2023/06/19 08:54:25;;;;;;;6.80;4.30;;;;;;;25.04;61.88;100134.63;5083519;28;20440;-61
2023/06/19 08:56:53;;;;;;;8.13;4.47;;;;;;;25.04;62.31;100135.44;5071776;28;20209;-61
2023/06/19 08:59:19;;;;;;;6.40;4.20;;;;;;;25.04;62.11;100132.53;5075443;28;20504;-61
2023/06/19 09:01:54;;;;;;;7.40;4.70;;;;;;;25.04;62.58;100120.19;5070284;28;20968;-61
2023/06/19 09:04:26;;;;;;;7.00;4.90;;;;;;;25.06;61.89;100124.28;5067187;28;20708;-61
2023/06/19 09:06:57;;;;;;;6.40;4.47;;;;;;;25.06;62.16;100121.41;5063897;28;20461;-62
2023/06/19 09:09:24;;;;;;;6.50;4.30;;;;;;;25.06;62.39;100120.56;5066912;28;20954;-62
2023/06/19 09:12:02;;;;;;;5.30;4.33;;;;;;;25.05;62.53;100118.94;5077324;28;20480;-61
2023/06/19 09:14:34;;;;;;;7.87;4.70;;;;;;;25.06;62.28;100120.56;5082458;28;20444;-61
2023/06/19 09:17:04;;;;;;;6.70;5.00;;;;;;;25.04;62.10;100120.97;5069358;28;20919;-61
2023/06/19 09:19:30;;;;;;;6.17;4.60;;;;;;;25.07;61.96;100133.75;5078026;28;20532;-61
2023/06/19 09:22:06;;;;;;;5.90;4.37;;;;;;;25.05;62.33;100119.75;5066829;28;20497;-61
2023/06/19 09:24:35;;;;;;;10.43;5.27;;;;;;;25.05;62.36;100119.75;5062279;28;20362;-61
2023/06/19 09:27:08;;;;;;;8.23;4.97;;;;;;;25.05;62.99;100122.66;5067887;28;20421;-61
2023/06/19 09:29:38;;;;;;;6.27;4.63;;;;;;;25.06;62.75;100115.63;5075194;28;20466;-61
2023/06/19 09:32:14;;;;;;;7.40;4.40;;;;;;;25.07;62.26;100113.53;5087447;28;20817;-61
2023/06/19 09:34:39;;;;;;;9.47;5.30;;;;;;;25.07;62.39;100117.25;5074083;28;20490;-61
2023/06/19 09:37:05;;;;;;;6.03;4.60;;;;;;;25.08;62.51;100112.31;5074617;28;20858;-61
2023/06/19 09:39:31;;;;;;;7.17;5.40;;;;;;;25.08;62.30;100109.41;5067474;28;20248;-61
2023/06/19 09:41:59;;;;;;;6.60;4.20;;;;;;;25.07;62.10;100099.91;5078520;28;20214;-61
2023/06/19 09:44:24;;;;;;;6.07;4.87;;;;;;;25.07;62.07;100099.09;5064598;28;20285;-61
2023/06/19 09:46:50;;;;;;;7.40;4.90;;;;;;;25.07;62.24;100094.13;5087531;28;20424;-61
2023/06/19 09:49:15;;;;;;;6.50;4.90;;;;;;;25.07;61.93;100099.91;5067735;28;20243;-61
2023/06/19 09:51:41;;;;;;;6.13;5.00;;;;;;;25.09;62.00;100106.06;5066358;28;20183;-61
2023/06/19 09:54:06;;;;;;;7.23;4.70;;;;;;;25.09;62.09;100106.06;5067833;28;20217;-61
2023/06/19 09:56:32;;;;;;;7.20;4.87;;;;;;;25.10;61.83;100104.00;5048234;28;20194;-61
2023/06/19 09:58:59;;;;;;;7.40;4.87;;;;;;;25.09;61.60;100097.41;5072869;28;20237;-61
2023/06/19 10:01:29;;;;;;;7.50;4.70;;;;;;;25.10;61.95;100089.56;5066600;28;20675;-61
2023/06/19 10:04:07;;;;;;;5.80;4.80;;;;;;;25.10;61.94;100087.50;5051566;28;20468;-61
2023/06/19 10:06:33;;;;;;;6.00;4.97;;;;;;;25.10;61.93;100093.28;5055174;28;20453;-61
2023/06/19 10:09:08;;;;;;;6.67;4.83;;;;;;;25.12;61.93;100095.72;5081653;28;20775;-61
2023/06/19 10:11:52;;;;;;;6.20;4.93;;;;;;;25.10;62.23;100087.50;5091518;28;20170;-61
2023/06/19 10:14:21;;;;;;;6.57;5.27;;;;;;;25.11;62.07;100094.91;5086756;28;20454;-61
2023/06/19 10:16:46;;;;;;;6.07;4.60;;;;;;;25.12;62.08;100093.66;5089913;28;20424;-61
2023/06/19 10:19:16;;;;;;;7.40;5.30;;;;;;;25.14;62.13;100081.69;5075559;28;20440;-61
2023/06/19 10:21:48;;;;;;;7.00;5.37;;;;;;;25.12;62.00;100089.94;5074305;28;20221;-61
2023/06/19 10:24:15;;;;;;;8.00;5.03;;;;;;;25.11;62.20;100089.13;5072021;28;20531;-61
2023/06/19 10:26:41;;;;;;;5.57;4.40;;;;;;;25.12;61.79;100082.09;5073846;28;20429;-61
2023/06/19 10:29:16;;;;;;;6.60;4.80;;;;;;;25.12;62.16;100081.28;5069774;28;20421;-61
2023/06/19 10:31:42;;;;;;;6.27;4.40;;;;;;;25.13;61.79;100086.63;5073393;28;20552;-61
2023/06/19 10:34:08;;;;;;;6.10;4.40;;;;;;;25.13;61.50;100083.75;5069691;28;20421;-61
2023/06/19 10:36:34;;;;;;;6.10;5.17;;;;;;;25.12;62.08;100082.09;5072234;28;20546;-61
2023/06/19 10:38:59;;;;;;;8.00;4.57;;;;;;;25.12;62.21;100078.38;5069825;28;20254;-61
2023/06/19 10:41:25;;;;;;;5.20;4.10;;;;;;;25.12;61.51;100085.00;5052810;28;20296;-61
2023/06/19 10:44:04;;;;;;;8.53;4.87;;;;;;;25.12;61.40;100072.59;5061505;28;20190;-61
2023/06/19 10:46:33;;;;;;;6.50;4.73;;;;;;;25.12;62.03;100073.44;5061877;28;20174;-61
2023/06/19 10:49:00;;;;;;;6.37;4.70;;;;;;;25.11;61.88;100070.97;5090643;28;20840;-61
2023/06/19 10:51:27;;;;;;;7.30;5.27;;;;;;;25.11;61.91;100060.25;5070796;28;20409;-61
2023/06/19 10:53:54;;;;;;;5.10;4.40;;;;;;;25.12;61.84;100059.00;5087905;28;20431;-61
2023/06/19 10:56:20;;;;;;;5.43;4.83;;;;;;;25.14;61.82;100062.25;5090655;28;20432;-61
2023/06/19 10:58:45;;;;;;;6.73;5.13;;;;;;;25.12;61.91;100055.28;5090626;28;20571;-61
2023/06/19 11:01:10;;;;;;;6.73;4.60;;;;;;;25.11;61.17;100048.69;5068163;28;20210;-61
2023/06/19 11:03:36;;;;;;;5.30;4.50;;;;;;;25.13;62.01;100051.94;5084653;28;20899;-61
2023/06/19 11:06:01;;;;;;;5.37;4.50;;;;;;;25.13;61.99;100045.38;5090510;28;20202;-61
2023/06/19 11:08:27;;;;;;;6.17;4.70;;;;;;;25.13;61.78;100034.63;5086537;28;20201;-62
2023/06/19 11:10:52;;;;;;;6.23;5.10;;;;;;;25.15;61.46;100037.91;5087853;28;20536;-61
2023/06/19 11:13:19;;;;;;;5.67;5.00;;;;;;;25.17;61.70;100040.34;5087652;28;20186;-61
2023/06/19 11:15:45;;;;;;;5.70;4.97;;;;;;;25.17;61.41;100029.63;5080061;28;20183;-61
2023/06/19 11:18:10;;;;;;;7.60;5.20;;;;;;;25.18;61.07;100039.13;5081850;28;20424;-61
2023/06/19 11:20:45;;;;;;;6.93;5.00;;;;;;;25.19;61.27;100035.78;5086927;28;20194;-61
2023/06/19 11:23:10;;;;;;;5.40;4.70;;;;;;;25.19;61.54;100026.31;5084886;28;20575;-61